Time;durP1;ratioP1;P1;durP2;ratioP2;P2;SDS_P1;SDS_P2;PMS_P1;PMS_P2;Temp;Humidity;BMP_temperature;BMP_pressure;BME280_temperature;BME280_humidity;BME280_pressure;Samples;Min_cycle;Max_cycle;Signal;HPM_P1;HPM_P2
2021/03/31 00:00:48;;;;;;;;;;;19.70;99.90;;;19.41;45.67;100367.25;5033811;28;19932;-64
2021/03/31 00:03:17;;;;;;;;;;;19.80;99.90;;;19.39;46.14;100366.81;5034534;28;20334;-64
2021/03/31 00:05:46;;;;;;;;;;;19.80;99.90;;;19.34;45.63;100367.03;5033020;28;19925;-64
2021/03/31 00:08:13;;;;;;;;;;;19.70;99.90;;;19.45;45.18;100359.91;5032749;28;20345;-64
2021/03/31 00:10:43;;;;;;;;;;;19.80;99.90;;;19.47;45.32;100357.56;5033691;28;19933;-64
2021/03/31 00:13:12;;;;;;;;;;;19.90;99.90;;;19.46;45.02;100345.00;5035206;28;20393;-64
2021/03/31 00:15:40;;;;;;;;;;;19.80;99.90;;;19.56;44.66;100340.91;5033117;28;20386;-64
2021/03/31 00:18:08;;;;;;;;;;;19.90;99.90;;;19.58;44.65;100341.31;5032469;28;19925;-64
2021/03/31 00:20:36;;;;;;;;;;;20.00;99.90;;;19.54;44.82;100333.06;5033407;28;19932;-64
2021/03/31 00:23:05;;;;;;;;;;;20.00;99.90;;;19.58;44.32;100322.91;5033342;28;20364;-64
2021/03/31 00:25:32;;;;;;;;;;;20.00;99.90;;;19.61;44.65;100340.59;5033354;28;20458;-64
2021/03/31 00:28:00;;;;;;;;;;;20.00;99.90;;;19.67;44.24;100332.91;5032210;28;19925;-64
2021/03/31 00:30:29;;;;;;;;;;;20.00;99.90;;;19.63;44.40;100339.09;5033848;28;19932;-64
2021/03/31 00:32:57;;;;;;;;;;;20.00;99.90;;;19.62;44.79;100326.53;5033131;28;20033;-63
2021/03/31 00:35:24;;;;;;;;;;;20.00;99.90;;;19.64;44.78;100339.88;5032414;28;19929;-64
2021/03/31 00:37:51;;;;;;;;;;;20.00;99.90;;;19.68;44.92;100321.53;5031696;28;19925;-62
2021/03/31 00:40:20;;;;;;;;;;;20.10;99.90;;;19.69;44.84;100317.66;5033216;28;19932;-62
2021/03/31 00:42:47;;;;;;;;;;;20.10;99.90;;;19.69;44.75;100322.34;5033349;28;20192;-65
2021/03/31 00:45:16;;;;;;;;;;;20.10;99.90;;;19.66;44.91;100314.84;5032833;28;19932;-64
2021/03/31 00:47:44;;;;;;;;;;;20.10;99.90;;;19.67;44.72;100317.22;5031609;28;19926;-65
2021/03/31 00:50:13;;;;;;;;;;;20.10;99.90;;;19.61;45.60;100313.19;5033362;28;19929;-64
2021/03/31 00:52:42;;;;;;;;;;;20.00;99.90;;;19.57;45.10;100315.88;5032628;28;20326;-65
2021/03/31 00:55:10;;;;;;;;;;;20.00;99.90;;;19.65;44.75;100300.31;5032713;28;19932;-64
2021/03/31 00:57:38;;;;;;;;;;;20.00;99.90;;;19.67;44.71;100302.72;5031221;28;19929;-62
2021/03/31 01:00:07;;;;;;;;;;;20.10;99.90;;;19.78;44.29;100285.31;5032745;28;19925;-62
2021/03/31 01:02:35;;;;;;;;;;;20.10;99.90;;;19.93;44.09;100289.09;5033008;28;20429;-62
2021/03/31 01:05:05;;;;;;;;;;;20.20;99.90;;;19.97;43.98;100284.47;5032472;28;20378;-62
2021/03/31 01:07:32;;;;;;;;;;;20.30;99.90;;;19.91;44.43;100281.22;5031464;28;20346;-65
2021/03/31 01:10:00;;;;;;;;;;;20.30;99.90;;;19.99;43.89;100260.97;5032634;28;19975;-65
2021/03/31 01:12:33;;;;;;;;;;;20.30;99.90;;;19.99;44.08;100262.94;5032696;28;19937;-64
2021/03/31 01:15:05;;;;;;;;;;;20.30;99.90;;;19.96;44.36;100269.94;5032169;28;20019;-64
2021/03/31 01:17:36;;;;;;;;;;;20.30;99.90;;;19.95;44.34;100248.34;5031182;28;19925;-64
2021/03/31 01:20:44;;;;;;;;;;;20.30;99.90;;;19.94;44.43;100255.00;5032512;28;19932;-64
2021/03/31 01:23:47;;;;;;;;;;;20.30;99.90;;;19.93;44.64;100240.50;5032507;28;19925;-64
2021/03/31 01:26:19;;;;;;;;;;;20.30;99.90;;;19.92;44.15;100249.09;5032010;28;20437;-64
2021/03/31 01:28:57;;;;;;;;;;;20.30;99.90;;;19.98;43.94;100239.38;5032064;28;19925;-64
2021/03/31 01:31:32;;;;;;;;;;;20.30;99.90;;;20.07;43.94;100243.47;5033713;28;19925;-64
2021/03/31 01:34:32;;;;;;;;;;;20.40;99.90;;;20.03;43.91;100245.34;5032359;28;19932;-64
2021/03/31 01:37:02;;;;;;;;;;;20.40;99.90;;;20.01;44.33;100235.91;5030789;28;19948;-64
2021/03/31 01:39:31;;;;;;;;;;;20.40;99.90;;;19.97;44.16;100227.59;5032280;28;19932;-64
2021/03/31 01:42:01;;;;;;;;;;;20.30;99.90;;;19.94;44.27;100225.59;5032386;28;19929;-64
2021/03/31 01:44:28;;;;;;;;;;;20.30;99.90;;;19.94;43.91;100220.09;5032254;28;20263;-64
2021/03/31 01:46:57;;;;;;;;;;;20.30;99.90;;;20.00;43.73;100221.38;5031567;28;20370;-64
2021/03/31 01:49:26;;;;;;;;;;;20.30;99.90;;;19.98;43.78;100212.75;5037496;28;20023;-64
2021/03/31 01:51:56;;;;;;;;;;;20.30;99.90;;;20.00;43.79;100206.91;5036359;28;19925;-64
2021/03/31 01:54:24;;;;;;;;;;;20.40;99.90;;;20.02;43.27;100197.13;5036277;28;19925;-64
2021/03/31 01:56:52;;;;;;;;;;;20.40;99.90;;;20.07;43.01;100210.53;5035821;28;19929;-64
2021/03/31 01:59:19;;;;;;;;;;;20.40;99.90;;;20.06;42.90;100195.22;5035815;28;19925;-64
2021/03/31 02:01:48;;;;;;;;;;;20.40;99.90;;;20.07;42.97;100185.03;5036397;28;19925;-64
2021/03/31 02:04:16;;;;;;;;;;;20.40;99.90;;;20.12;42.91;100176.50;5036370;28;19925;-64
2021/03/31 02:06:43;;;;;;;;;;;20.50;99.90;;;20.16;42.97;100196.53;5036547;28;19948;-64
2021/03/31 02:09:13;;;;;;;;;;;20.50;99.90;;;20.10;42.82;100196.06;5036268;28;20023;-64
2021/03/31 02:11:44;;;;;;;;;;;20.50;99.90;;;20.06;42.78;100197.19;5038297;28;20398;-64
2021/03/31 02:14:13;;;;;;;;;;;20.50;99.90;;;20.13;42.67;100191.78;5035750;28;20357;-64
2021/03/31 02:16:42;;;;;;;;;;;20.50;99.90;;;20.09;42.64;100193.72;5034828;28;20363;-64
2021/03/31 02:19:12;;;;;;;;;;;20.50;99.90;;;20.12;42.80;100188.25;5036286;28;19925;-63
2021/03/31 02:21:41;;;;;;;;;;;20.50;99.90;;;20.14;42.30;100182.41;5035877;28;19925;-62
2021/03/31 02:24:10;;;;;;;;;;;20.50;99.90;;;20.12;42.22;100182.00;5035557;28;19933;-64
2021/03/31 02:26:38;;;;;;;;;;;20.50;99.90;;;20.10;42.35;100182.34;5034765;28;19929;-64
2021/03/31 02:29:05;;;;;;;;;;;20.50;99.90;;;20.10;42.39;100176.84;5035246;28;19929;-64
2021/03/31 02:31:33;;;;;;;;;;;20.50;99.90;;;20.09;42.33;100169.78;5035542;28;19925;-62
2021/03/31 02:34:01;;;;;;;;;;;20.50;99.90;;;20.07;42.55;100168.56;5032870;28;20077;-63
2021/03/31 02:36:29;;;;;;;;;;;20.50;99.90;;;20.09;42.47;100180.00;5034844;28;20028;-63
2021/03/31 02:38:57;;;;;;;;;;;20.40;99.90;;;20.09;42.08;100171.75;5034527;28;20191;-65
2021/03/31 02:41:25;;;;;;;;;;;20.40;99.90;;;20.11;42.35;100181.19;5036051;28;19926;-62
2021/03/31 02:43:54;;;;;;;;;;;20.50;99.90;;;20.11;41.97;100169.41;5036701;28;19925;-63
2021/03/31 02:46:22;;;;;;;;;;;20.50;99.90;;;20.04;42.47;100158.31;5034543;28;20433;-63
2021/03/31 02:48:51;;;;;;;;;;;20.40;99.90;;;20.01;42.13;100161.81;5034399;28;19925;-64
2021/03/31 02:51:19;;;;;;;;;;;20.40;99.90;;;19.98;42.01;100159.78;5035066;28;19925;-62
2021/03/31 02:53:48;;;;;;;;;;;20.40;99.90;;;20.08;41.60;100164.66;5035270;28;20370;-62
2021/03/31 02:56:15;;;;;;;;;;;20.40;99.90;;;20.13;41.16;100169.84;5034729;28;19925;-62
2021/03/31 02:58:44;;;;;;;;;;;20.50;99.90;;;20.15;41.77;100157.31;5033172;28;19929;-62
2021/03/31 03:01:12;;;;;;;;;;;20.50;99.90;;;20.17;41.11;100156.97;5035123;28;19978;-62
2021/03/31 03:03:40;;;;;;;;;;;20.50;99.90;;;20.17;41.08;100155.00;5035272;28;19925;-63
2021/03/31 03:06:08;;;;;;;;;;;20.50;99.90;;;20.16;40.93;100164.41;5034210;28;20303;-62
2021/03/31 03:08:35;;;;;;;;;;;20.50;99.90;;;20.17;41.18;100166.00;5033770;28;19932;-63
2021/03/31 03:11:03;;;;;;;;;;;20.50;99.90;;;20.16;41.17;100169.09;5034640;28;19929;-62
2021/03/31 03:13:30;;;;;;;;;;;20.50;99.90;;;20.15;41.03;100167.53;5034571;28;20047;-65
2021/03/31 03:15:58;;;;;;;;;;;20.50;99.90;;;20.09;41.37;100158.78;5034015;28;19929;-64
2021/03/31 03:18:27;;;;;;;;;;;20.50;99.90;;;20.08;41.34;100175.66;5033875;28;19929;-65
2021/03/31 03:20:54;;;;;;;;;;;20.50;99.90;;;20.08;41.04;100168.22;5034462;28;19932;-64
2021/03/31 03:23:22;;;;;;;;;;;20.50;99.90;;;20.09;41.17;100185.47;5034587;28;20442;-62
2021/03/31 03:25:50;;;;;;;;;;;20.50;99.90;;;20.09;40.79;100177.25;5033905;28;20015;-62
2021/03/31 03:28:20;;;;;;;;;;;20.50;99.90;;;20.12;40.54;100173.75;5034004;28;19951;-65
2021/03/31 03:30:47;;;;;;;;;;;20.50;99.90;;;20.04;40.63;100172.03;5036509;28;19932;-65
2021/03/31 03:33:15;;;;;;;;;;;20.40;99.90;;;20.11;40.94;100177.66;5034420;28;19939;-64
2021/03/31 03:35:44;;;;;;;;;;;20.40;99.90;;;20.07;41.10;100182.28;5034037;28;20298;-64
2021/03/31 03:38:11;;;;;;;;;;;20.40;99.90;;;20.04;41.19;100181.06;5032870;28;20382;-64
2021/03/31 03:40:39;;;;;;;;;;;20.40;99.90;;;19.98;40.73;100173.53;5034037;28;19925;-63
2021/03/31 03:43:07;;;;;;;;;;;20.40;99.90;;;19.94;41.13;100172.69;5034257;28;20379;-64
2021/03/31 03:45:38;;;;;;;;;;;20.30;99.90;;;19.88;41.52;100185.13;5033884;28;19925;-64
2021/03/31 03:48:06;;;;;;;;;;;20.30;99.90;;;19.80;41.65;100180.66;5032961;28;19929;-64
2021/03/31 03:50:33;;;;;;;;;;;20.20;99.90;;;19.76;42.02;100172.38;5033926;28;19932;-64
2021/03/31 03:53:02;;;;;;;;;;;20.10;99.90;;;19.77;41.94;100178.66;5034248;28;19933;-64
2021/03/31 03:55:32;;;;;;;;;;;20.10;99.90;;;19.77;41.75;100170.44;5033721;28;19940;-64
2021/03/31 03:58:05;;;;;;;;;;;20.10;99.90;;;19.81;41.63;100166.59;5032579;28;19925;-64
2021/03/31 04:00:32;;;;;;;;;;;20.20;99.90;;;19.81;41.94;100190.50;5034117;28;20294;-64
2021/03/31 04:03:00;;;;;;;;;;;20.20;99.90;;;19.82;41.68;100176.41;5033783;28;19925;-64
2021/03/31 04:05:28;;;;;;;;;;;20.20;99.90;;;19.83;41.77;100177.19;5033611;28;20298;-64
2021/03/31 04:07:55;;;;;;;;;;;20.20;99.90;;;19.78;41.93;100169.28;5032378;28;19936;-64
2021/03/31 04:10:25;;;;;;;;;;;20.20;99.90;;;19.76;41.81;100166.88;5033353;28;19929;-64
2021/03/31 04:12:53;;;;;;;;;;;20.10;99.90;;;19.78;41.53;100174.78;5033483;28;19926;-64
2021/03/31 04:15:21;;;;;;;;;;;20.20;99.90;;;19.81;41.50;100165.81;5033326;28;19926;-64
2021/03/31 04:17:49;;;;;;;;;;;20.20;99.90;;;19.84;41.21;100165.88;5032154;28;19933;-64
2021/03/31 04:20:18;;;;;;;;;;;20.20;99.90;;;19.85;41.02;100159.19;5033583;28;20291;-63
2021/03/31 04:22:47;;;;;;;;;;;20.20;99.90;;;19.94;40.78;100169.94;5033849;28;19925;-64
2021/03/31 04:25:16;;;;;;;;;;;20.30;99.90;;;19.98;40.64;100157.84;5033223;28;19967;-63
2021/03/31 04:27:45;;;;;;;;;;;20.30;99.90;;;19.94;40.77;100156.22;5032140;28;19932;-64
2021/03/31 04:30:14;;;;;;;;;;;20.30;99.90;;;19.95;40.52;100168.78;5033012;28;19968;-64
2021/03/31 04:32:45;;;;;;;;;;;20.30;99.90;;;19.99;40.42;100153.97;5033574;28;20512;-64
2021/03/31 04:35:13;;;;;;;;;;;20.30;99.90;;;19.97;40.66;100159.00;5034579;28;19932;-64
2021/03/31 04:37:40;;;;;;;;;;;20.30;99.90;;;19.99;40.26;100142.97;5032030;28;19932;-64
2021/03/31 04:40:11;;;;;;;;;;;20.40;99.90;;;20.04;40.03;100139.13;5034855;28;19925;-64
2021/03/31 04:42:39;;;;;;;;;;;20.40;99.90;;;20.01;40.15;100140.66;5034125;28;19953;-64
2021/03/31 04:45:09;;;;;;;;;;;20.40;99.90;;;20.06;40.08;100164.25;5032965;28;20300;-64
2021/03/31 04:47:38;;;;;;;;;;;20.40;99.90;;;20.03;40.17;100152.03;5031939;28;19925;-63
2021/03/31 04:50:06;;;;;;;;;;;20.40;99.90;;;19.99;39.95;100142.19;5034306;28;19932;-63
2021/03/31 04:52:34;;;;;;;;;;;20.40;99.90;;;20.00;39.67;100139.06;5033933;28;19932;-64
2021/03/31 04:55:01;;;;;;;;;;;20.40;99.90;;;20.08;39.85;100126.25;5032728;28;19925;-64
2021/03/31 04:57:28;;;;;;;;;;;20.40;99.90;;;20.02;40.15;100116.75;5031453;28;19929;-64
2021/03/31 04:59:55;;;;;;;;;;;20.40;99.90;;;19.95;40.03;100119.38;5032843;28;19929;-64
2021/03/31 05:02:24;;;;;;;;;;;20.40;99.90;;;19.99;39.78;100117.50;5032693;28;19948;-64
2021/03/31 05:04:51;;;;;;;;;;;20.30;99.90;;;20.06;39.39;100109.38;5032620;28;20321;-64
2021/03/31 05:07:18;;;;;;;;;;;20.40;99.90;;;20.10;39.74;100105.50;5031498;28;19925;-64
2021/03/31 05:09:46;;;;;;;;;;;20.40;99.90;;;19.99;39.87;100098.28;5032492;28;20295;-64
2021/03/31 05:12:13;;;;;;;;;;;20.40;99.90;;;20.02;39.72;100103.81;5032418;28;19925;-64
2021/03/31 05:14:40;;;;;;;;;;;20.40;99.90;;;20.01;39.79;100102.22;5032332;28;19929;-64
2021/03/31 05:17:08;;;;;;;;;;;20.40;99.90;;;19.97;39.88;100092.38;5031408;28;19932;-64
2021/03/31 05:19:36;;;;;;;;;;;20.40;99.90;;;19.95;39.44;100089.19;5032369;28;20043;-64
2021/03/31 05:22:03;;;;;;;;;;;20.30;99.90;;;19.96;39.44;100094.31;5032140;28;19979;-64
2021/03/31 05:24:31;;;;;;;;;;;20.30;99.90;;;19.91;40.00;100091.88;5032428;28;19925;-64
2021/03/31 05:26:58;;;;;;;;;;;20.30;99.90;;;19.81;40.09;100089.00;5031416;28;19972;-64
2021/03/31 05:29:25;;;;;;;;;;;20.20;99.90;;;19.87;39.99;100095.75;5032123;28;19932;-64
2021/03/31 05:31:52;;;;;;;;;;;20.20;99.90;;;19.90;39.89;100095.00;5032751;28;20002;-64
2021/03/31 05:34:20;;;;;;;;;;;20.20;99.90;;;19.90;40.26;100089.50;5032478;28;19932;-64
2021/03/31 05:36:48;;;;;;;;;;;20.30;99.90;;;19.90;39.75;100081.28;5031207;28;19930;-63
2021/03/31 05:39:15;;;;;;;;;;;20.20;99.90;;;19.87;39.81;100071.06;5031891;28;19999;-64
2021/03/31 05:41:43;;;;;;;;;;;20.20;99.90;;;19.89;39.80;100064.03;5032313;28;19925;-64
2021/03/31 05:44:10;;;;;;;;;;;20.20;99.90;;;19.89;39.88;100065.97;5032321;28;19925;-64
2021/03/31 05:46:38;;;;;;;;;;;20.20;99.90;;;19.88;40.04;100050.69;5031554;28;19929;-65
2021/03/31 05:49:06;;;;;;;;;;;20.20;99.90;;;19.95;39.55;100048.03;5032205;28;19961;-64
2021/03/31 05:51:34;;;;;;;;;;;20.30;99.90;;;19.96;39.37;100046.88;5033756;28;20303;-63
2021/03/31 05:54:02;;;;;;;;;;;20.30;99.90;;;19.97;39.37;100053.97;5032226;28;19933;-64
2021/03/31 05:56:32;;;;;;;;;;;20.30;99.90;;;19.93;39.29;100066.81;5032235;28;19925;-64
2021/03/31 05:59:02;;;;;;;;;;;20.30;99.90;;;19.87;39.84;100073.78;5031882;28;20386;-64
2021/03/31 06:01:30;;;;;;;;;;;20.30;99.90;;;19.86;39.55;100066.72;5032413;28;19972;-63
2021/03/31 06:03:57;;;;;;;;;;;20.20;99.90;;;19.87;39.55;100076.53;5032111;28;19933;-64
2021/03/31 06:06:25;;;;;;;;;;;20.20;99.90;;;19.87;39.43;100071.06;5031565;28;20504;-64
2021/03/31 06:08:52;;;;;;;;;;;20.20;99.90;;;19.93;39.52;100075.06;5031230;28;19929;-64
2021/03/31 06:11:22;;;;;;;;;;;20.30;99.90;;;19.86;39.58;100077.69;5031962;28;19936;-64
2021/03/31 06:13:50;;;;;;;;;;;20.20;99.90;;;19.95;39.41;100069.97;5031809;28;20344;-64
2021/03/31 06:16:31;;;;;;;;;;;20.30;99.90;;;20.01;39.33;100071.25;5031314;28;19921;-64
2021/03/31 06:18:59;;;;;;;;;;;20.30;99.90;;;19.96;39.23;100075.13;5031792;28;19929;-64
2021/03/31 06:21:26;;;;;;;;;;;20.30;99.90;;;19.97;39.11;100073.16;5032016;28;19932;-64
2021/03/31 06:24:00;;;;;;;;;;;20.30;99.90;;;20.02;38.87;100070.88;5031735;28;19925;-64
2021/03/31 06:26:30;;;;;;;;;;;20.40;99.90;;;20.00;39.33;100069.69;5031554;28;19936;-64
2021/03/31 06:28:59;;;;;;;;;;;20.40;99.90;;;19.99;39.08;100079.88;5030882;28;20326;-64
2021/03/31 06:31:31;;;;;;;;;;;20.40;99.90;;;20.03;39.18;100080.69;5031840;28;19936;-64
2021/03/31 06:34:03;;;;;;;;;;;20.40;99.90;;;20.07;39.05;100067.81;5032101;28;20015;-64
2021/03/31 06:36:36;;;;;;;;;;;20.40;99.90;;;20.08;39.09;100074.91;5035963;28;19926;-64
2021/03/31 06:39:18;;;;;;;;;;;20.50;99.90;;;20.02;39.05;100083.81;5036101;28;19932;-64
2021/03/31 06:41:53;;;;;;;;;;;20.40;99.90;;;20.07;39.25;100078.00;5035311;28;20055;-63
2021/03/31 06:44:38;;;;;;;;;;;20.40;99.90;;;20.10;39.33;100069.03;5035231;28;19926;-64
2021/03/31 06:47:11;;;;;;;;;;;20.50;99.90;;;20.21;38.72;100069.19;5034129;28;19929;-63
2021/03/31 06:49:38;;;;;;;;;;;20.50;99.90;;;20.33;38.39;100077.22;5034970;28;19941;-64
2021/03/31 06:52:07;;;;;;;;;;;20.60;99.90;;;20.39;38.15;100083.97;5035088;28;20364;-63
2021/03/31 06:54:52;;;;;;;;;;;20.70;99.90;;;20.44;38.14;100070.69;5034976;28;19925;-64
2021/03/31 06:57:27;;;;;;;;;;;20.80;99.90;;;20.46;38.37;100084.81;5034082;28;19968;-63
2021/03/31 07:00:02;;;;;;;;;;;20.80;99.90;;;20.50;38.04;100071.94;5034842;28;19933;-62
2021/03/31 07:02:31;;;;;;;;;;;20.90;99.90;;;20.57;38.03;100074.78;5035199;28;19925;-62
2021/03/31 07:04:59;;;;;;;;;;;20.90;99.90;;;20.69;37.60;100082.75;5034773;28;19925;-61
2021/03/31 07:07:33;;;;;;;;;;;21.00;99.90;;;20.78;37.75;100082.47;5033769;28;19925;-62
2021/03/31 07:10:09;;;;;;;;;;;21.10;99.90;;;20.90;37.58;100084.94;5034729;28;19936;-64
2021/03/31 07:12:44;;;;;;;;;;;21.20;99.90;;;20.99;37.39;100074.44;5034979;28;19925;-64
2021/03/31 07:15:12;;;;;;;;;;;;;;;21.08;37.31;100060.38;5035693;28;20385;-63
2021/03/31 07:17:42;;;;;;;;;;;21.40;99.90;;;21.23;37.23;100073.13;5033457;28;19929;-64
2021/03/31 07:20:11;;;;;;;;;;;21.40;99.90;;;21.34;37.23;100070.50;5035225;28;19947;-62
2021/03/31 07:22:38;;;;;;;;;;;21.60;99.90;;;21.45;37.33;100074.09;5034548;28;19929;-62
2021/03/31 07:25:07;;;;;;;;;;;21.70;99.90;;;21.57;36.97;100069.09;5034252;28;19925;-63
2021/03/31 07:27:35;;;;;;;;;;;;;;;21.61;36.90;100050.66;5033364;28;20371;-64
2021/03/31 07:30:09;;;;;;;;;;;21.90;99.90;;;21.65;36.45;100067.97;5034431;28;19929;-64
2021/03/31 07:32:46;;;;;;;;;;;22.00;99.90;;;21.60;36.55;100056.53;5034485;28;19925;-64
2021/03/31 07:35:14;;;;;;;;;;;22.10;99.90;;;21.48;37.45;100054.09;5036788;28;19965;-64
2021/03/31 07:37:42;;;;;;;;;;;22.00;99.90;;;21.51;37.77;100056.88;5032928;28;19936;-64
2021/03/31 07:40:12;;;;;;;;;;;22.10;99.90;;;21.57;37.66;100062.81;5034236;28;19925;-64
2021/03/31 07:42:41;;;;;;;;;;;22.10;99.90;;;21.56;37.33;100062.00;5034157;28;19948;-64
2021/03/31 07:45:11;;;;;;;;;;;22.00;99.90;;;21.60;37.83;100043.59;5033437;28;20031;-64
2021/03/31 07:47:40;;;;;;;;;;;22.00;99.90;;;21.65;37.39;100047.91;5033099;28;19948;-63
2021/03/31 07:50:10;;;;;;;;;;;22.00;99.90;;;21.67;37.50;100049.13;5034775;28;20390;-63
2021/03/31 07:52:49;;;;;;;;;;;22.10;99.90;;;21.78;37.42;100055.50;5036390;28;19983;-64
2021/03/31 07:55:38;;;;;;;;;;;22.10;99.90;;;21.86;37.90;100061.03;5035544;28;19973;-64
2021/03/31 07:58:29;;;;;;;;;;;22.20;99.90;;;21.93;37.10;100041.84;5032975;28;19925;-64
2021/03/31 08:01:06;;;;;;;;;;;22.30;99.90;;;21.96;37.62;100021.81;5023945;28;19925;-64
2021/03/31 08:03:36;;;;;;;;;;;22.40;99.90;;;21.99;36.89;100018.28;5033925;28;19929;-64
2021/03/31 08:06:15;;;;;;;;;;;22.40;99.90;;;22.04;36.98;100026.19;5033348;28;20226;-64
2021/03/31 08:09:02;;;;;;;;;;;22.40;99.90;;;22.17;36.68;100035.69;5034262;28;20031;-64
2021/03/31 08:11:58;;;;;;;;;;;22.50;99.90;;;22.25;37.01;100032.56;5033893;28;19925;-64
2021/03/31 08:14:36;;;;;;;;;;;;;;;22.31;36.55;100033.78;5033287;28;19932;-64
2021/03/31 08:17:05;;;;;;;;;;;22.70;99.90;;;22.39;36.46;100011.78;5032230;28;19980;-64
2021/03/31 08:19:35;;;;;;;;;;;22.80;99.90;;;22.38;36.42;100015.69;5033084;28;20283;-64
2021/03/31 08:22:21;;;;;;;;;;;22.80;99.90;;;22.52;36.73;100019.31;5035003;28;19936;-63
2021/03/31 08:24:51;;;;;;;;;;;23.40;99.90;;;22.62;36.00;99999.25;5033298;28;19933;-64
2021/03/31 08:27:18;;;;;;;;;;;23.00;99.90;;;22.68;36.16;100011.50;5031977;28;19979;-64
2021/03/31 08:29:48;;;;;;;;;;;23.00;99.90;;;22.68;36.20;100013.44;5033245;28;19925;-64
2021/03/31 08:32:18;;;;;;;;;;;23.00;99.90;;;22.74;35.95;100001.66;5033358;28;19925;-64
2021/03/31 08:34:46;;;;;;;;;;;23.10;99.80;;;22.83;35.76;99993.00;5033508;28;19925;-62
2021/03/31 08:37:23;;;;;;;;;;;23.30;99.90;;;22.96;35.83;99983.19;5032205;28;19932;-65
2021/03/31 08:39:51;;;;;;;;;;;23.30;99.90;;;23.04;35.38;99979.22;5034161;28;19925;-63
2021/03/31 08:42:19;;;;;;;;;;;23.40;99.40;;;23.08;35.20;99990.28;5032836;28;19929;-64
2021/03/31 08:44:54;;;;;;;;;;;23.40;99.40;;;23.17;35.74;99976.88;5033693;28;19932;-65
2021/03/31 08:47:23;;;;;;;;;;;23.60;99.60;;;23.26;35.25;99986.34;5031761;28;19925;-63
2021/03/31 08:49:52;;;;;;;;;;;23.60;99.40;;;23.37;35.98;99981.63;5032757;28;19926;-64
2021/03/31 08:52:21;;;;;;;;;;;23.70;99.90;;;23.50;35.27;99979.25;5032797;28;20405;-64
2021/03/31 08:54:50;;;;;;;;;;;23.80;99.30;;;23.60;35.28;99999.72;5032755;28;20365;-64
2021/03/31 08:57:20;;;;;;;;;;;24.00;99.50;;;23.65;34.81;99977.25;5031552;28;19933;-64
2021/03/31 08:59:49;;;;;;;;;;;24.00;99.00;;;23.61;34.78;99977.25;5032660;28;20218;-64
2021/03/31 09:02:19;;;;;;;;;;;24.00;98.90;;;23.66;34.77;99978.81;5032682;28;20031;-64
2021/03/31 09:04:47;;;;;;;;;;;24.00;99.00;;;23.77;35.40;99985.88;5033155;28;19957;-64
2021/03/31 09:07:15;;;;;;;;;;;24.10;99.40;;;23.96;34.48;99981.88;5031736;28;19932;-64
2021/03/31 09:09:44;;;;;;;;;;;24.30;98.80;;;24.01;35.25;99975.16;5032735;28;20359;-64
2021/03/31 09:12:15;;;;;;;;;;;24.40;99.30;;;24.07;33.84;99966.06;5032445;28;20286;-63
2021/03/31 09:14:45;;;;;;;;;;;24.40;98.40;;;24.03;34.39;99986.59;5032363;28;19925;-64
2021/03/31 09:17:18;;;;;;;;;;;24.40;98.70;;;24.11;34.42;99977.13;5030622;28;20209;-62
2021/03/31 09:19:47;;;;;;;;;;;24.50;99.10;;;24.33;34.46;99978.59;5032263;28;19925;-64
2021/03/31 09:22:17;;;;;;;;;;;24.60;98.70;;;24.30;34.77;99977.44;5032627;28;19932;-63
2021/03/31 09:24:47;;;;;;;;;;;;;;;24.36;34.62;99994.38;5032342;28;19979;-62
2021/03/31 09:27:15;;;;;;;;;;;24.70;98.60;;;24.45;33.62;99978.16;5031483;28;19976;-63
2021/03/31 09:29:44;;;;;;;;;;;24.80;98.30;;;24.55;33.45;99977.31;5032392;28;19936;-64
2021/03/31 09:32:14;;;;;;;;;;;24.90;98.00;;;24.61;34.14;99983.97;5033120;28;20035;-63
2021/03/31 09:34:42;;;;;;;;;;;24.90;98.40;;;24.79;34.81;99981.09;5032105;28;20275;-64
2021/03/31 09:37:15;;;;;;;;;;;25.10;99.00;;;24.89;33.37;99989.34;5031345;28;20448;-64
2021/03/31 09:39:47;;;;;;;;;;;25.30;98.00;;;24.98;33.02;99975.84;5032235;28;20011;-63
2021/03/31 09:42:19;;;;;;;;;;;25.30;97.80;;;25.10;33.42;99990.38;5032382;28;19925;-64
2021/03/31 09:44:47;;;;;;;;;;;25.40;98.00;;;25.18;33.22;99969.75;5031983;28;19926;-64
2021/03/31 09:47:16;;;;;;;;;;;25.50;98.00;;;25.33;32.75;99985.03;5031066;28;20342;-64
2021/03/31 09:49:44;;;;;;;;;;;25.60;97.60;;;25.35;32.21;99988.19;5032109;28;19925;-64
2021/03/31 09:52:13;;;;;;;;;;;25.70;97.10;;;25.43;32.95;99968.34;5032826;28;19932;-64
2021/03/31 09:54:44;;;;;;;;;;;25.80;97.80;;;25.75;33.11;99976.34;5032918;28;19936;-65
2021/03/31 09:57:12;;;;;;;;;;;26.00;98.10;;;25.84;31.94;99973.09;5031978;28;19971;-65
2021/03/31 09:59:40;;;;;;;;;;;26.10;96.80;;;25.87;32.56;99975.78;5032084;28;20370;-62
2021/03/31 10:02:09;;;;;;;;;;;26.20;97.70;;;26.03;32.62;99962.16;5032250;28;19987;-64
2021/03/31 10:04:38;;;;;;;;;;;26.40;97.70;;;26.25;31.49;99965.47;5032349;28;19925;-64
2021/03/31 10:07:12;;;;;;;;;;;26.50;96.80;;;26.30;31.68;99975.31;5031001;28;19979;-64
2021/03/31 10:09:41;;;;;;;;;;;26.70;96.80;;;26.09;30.50;99968.81;5035012;28;19925;-64
2021/03/31 10:12:10;;;;;;;;;;;26.50;95.90;;;25.68;31.17;99951.50;5035905;28;20401;-64
2021/03/31 10:14:46;;;;;;;;;;;26.10;95.90;;;25.53;30.68;99939.78;5037393;28;19929;-64
2021/03/31 10:17:15;;;;;;;;;;;26.00;95.90;;;25.54;31.84;99946.09;5034506;28;19925;-65
2021/03/31 10:19:43;;;;;;;;;;;25.90;96.60;;;25.75;32.66;99934.00;5035442;28;19940;-65
2021/03/31 10:22:11;;;;;;;;;;;26.10;97.10;;;25.94;31.53;99933.38;5035732;28;19925;-64
2021/03/31 10:24:41;;;;;;;;;;;26.30;96.50;;;26.01;30.60;99933.31;5035598;28;20345;-64
2021/03/31 10:27:09;;;;;;;;;;;26.30;95.80;;;26.10;30.95;99911.41;5034368;28;20368;-64
2021/03/31 10:29:37;;;;;;;;;;;26.40;96.10;;;26.09;31.64;99924.47;5035346;28;19932;-64
2021/03/31 10:32:05;;;;;;;;;;;26.40;96.80;;;26.06;30.06;99930.84;5035547;28;19959;-64
2021/03/31 10:34:41;;;;;;;;;;;26.40;95.50;;;26.08;30.05;99920.13;5035398;28;19928;-64
2021/03/31 10:37:15;;;;;;;;;;;26.40;95.20;;;26.09;29.42;99927.25;5033870;28;19929;-64
2021/03/31 10:48:37;;;;;;;;;;;26.70;96.30;;;26.15;30.97;99918.47;5034398;28;19951;-62
2021/03/31 10:51:12;;;;;;;;;;;26.50;95.50;;;26.21;30.99;99914.06;5035116;28;20481;-64
2021/03/31 10:53:42;;;;;;;;;;;26.50;96.00;;;26.21;30.38;99902.97;5036106;28;19952;-65
2021/03/31 10:56:11;;;;;;;;;;;26.50;95.60;;;26.24;31.26;99902.94;5034583;28;19983;-65
2021/03/31 10:58:41;;;;;;;;;;;26.50;95.80;;;26.16;30.75;99892.38;5034247;28;20375;-66
2021/03/31 11:01:08;;;;;;;;;;;26.50;95.40;;;26.24;30.46;99902.13;5034769;28;20283;-65
2021/03/31 11:03:36;;;;;;;;;;;26.50;95.60;;;26.35;31.95;99906.34;5034835;28;19925;-64
2021/03/31 11:06:03;;;;;;;;;;;26.60;96.40;;;26.37;29.92;99903.16;5034259;28;19929;-63
2021/03/31 11:08:31;;;;;;;;;;;26.60;95.10;;;26.37;30.29;99906.72;5034102;28;19933;-64
2021/03/31 11:10:58;;;;;;;;;;;26.60;95.20;;;26.44;30.47;99876.13;5034862;28;20298;-64
2021/03/31 11:13:26;;;;;;;;;;;26.70;95.50;;;26.40;31.42;99913.41;5034716;28;20371;-64
2021/03/31 11:15:55;;;;;;;;;;;26.70;95.70;;;26.47;30.38;99927.97;5034141;28;19929;-64
2021/03/31 11:18:33;;;;;;;;;;;26.80;95.50;;;26.52;30.86;99898.97;5033873;28;20331;-64
2021/03/31 11:21:12;;;;;;;;;;;26.80;95.80;;;26.55;30.32;99898.91;5034229;28;19937;-62
2021/03/31 11:26:25;;;;;;;;;;;26.80;95.20;;;26.36;30.73;99879.41;5034130;28;19979;-64
2021/03/31 11:28:53;;;;;;;;;;;26.70;95.30;;;26.23;30.88;99886.72;5034638;28;19931;-63
2021/03/31 11:31:21;;;;;;;;;;;26.60;95.40;;;26.29;30.38;99891.41;5034686;28;19929;-64
2021/03/31 11:33:48;;;;;;;;;;;26.60;95.10;;;26.42;30.53;99891.56;5034300;28;19925;-64
2021/03/31 11:36:15;;;;;;;;;;;26.70;95.40;;;26.49;30.21;99867.31;5033805;28;19934;-64